createdAt,value
2019-06-10T00:00:04.825Z,56.60
2019-06-10T00:02:31.700Z,56.76
2019-06-10T00:04:58.275Z,56.76
2019-06-10T00:07:24.867Z,56.75
2019-06-10T00:09:51.491Z,56.84
2019-06-10T00:12:18.059Z,56.98
2019-06-10T00:14:44.664Z,57.09
2019-06-10T00:17:11.253Z,57.17
2019-06-10T00:19:37.871Z,57.12
2019-06-10T00:22:06.491Z,57.16
2019-06-10T00:24:32.778Z,57.28
2019-06-10T00:27:00.285Z,57.37
2019-06-10T00:29:27.686Z,57.41
2019-06-10T00:31:54.293Z,57.60
2019-06-10T00:34:21.052Z,57.59
2019-06-10T00:36:47.686Z,57.61
2019-06-10T00:39:14.350Z,57.87
2019-06-10T00:41:42.882Z,57.86
2019-06-10T00:44:12.315Z,57.93
2019-06-10T00:46:37.560Z,57.86
2019-06-10T00:49:05.866Z,57.81
2019-06-10T00:51:32.507Z,58.03
2019-06-10T00:54:02.013Z,58.04
2019-06-10T00:56:30.707Z,58.05
2019-06-10T00:58:56.655Z,58.13
2019-06-10T01:01:23.227Z,58.15
2019-06-10T01:03:50.918Z,58.27
2019-06-10T01:06:17.706Z,58.31
2019-06-10T01:08:44.283Z,58.33
2019-06-10T01:11:20.234Z,58.36
2019-06-10T01:13:41.258Z,58.53
2019-06-10T01:16:07.526Z,58.72
2019-06-10T01:18:38.362Z,58.85
2019-06-10T01:21:03.777Z,58.72
2019-06-10T01:23:31.068Z,58.83
2019-06-10T01:25:57.774Z,58.81
2019-06-10T01:28:24.338Z,58.95
2019-06-10T01:30:51.671Z,58.84
2019-06-10T01:33:21.065Z,58.93
2019-06-10T01:35:46.820Z,58.99
2019-06-10T01:38:16.212Z,59.10
2019-06-10T01:40:42.426Z,59.11
2019-06-10T01:43:11.048Z,59.09
2019-06-10T01:45:37.551Z,59.13
2019-06-10T01:48:04.134Z,59.18
2019-06-10T01:50:31.164Z,59.33
2019-06-10T01:52:57.933Z,59.43
2019-06-10T01:55:24.501Z,59.60
2019-06-10T01:57:51.837Z,59.68
2019-06-10T02:00:25.110Z,59.77
2019-06-10T02:02:47.090Z,59.81
2019-06-10T02:05:16.246Z,59.75
2019-06-10T02:07:41.962Z,59.95
2019-06-10T02:10:09.485Z,59.90
2019-06-10T02:12:36.870Z,60.02
2019-06-10T02:15:03.438Z,59.99
2019-06-10T02:17:31.436Z,59.98
2019-06-10T02:19:58.114Z,60.11
2019-06-10T02:22:24.721Z,60.32
2019-06-10T02:24:51.385Z,60.34
2019-06-10T02:27:19.538Z,60.41
2019-06-10T02:29:46.316Z,60.48
2019-06-10T02:32:17.505Z,60.63
2019-06-10T02:34:53.207Z,60.68
2019-06-10T02:37:09.516Z,60.78
2019-06-10T02:39:39.070Z,60.81
2019-06-10T02:42:04.804Z,60.83
2019-06-10T02:44:36.442Z,60.74
2019-06-10T02:47:03.160Z,60.66
2019-06-10T02:49:46.258Z,60.60
2019-06-10T02:51:56.486Z,60.63
2019-06-10T02:54:30.415Z,60.70
2019-06-10T02:56:53.849Z,60.85
2019-06-10T02:59:21.545Z,60.84
2019-06-10T03:01:48.154Z,61.09
2019-06-10T03:04:16.345Z,61.04
2019-06-10T03:06:44.848Z,61.16
2019-06-10T03:09:14.096Z,61.34
2019-06-10T03:11:39.727Z,61.45
2019-06-10T03:14:06.470Z,61.53
2019-06-10T03:16:33.159Z,61.68
2019-06-10T03:18:59.835Z,61.72
2019-06-10T03:21:26.424Z,61.72
2019-06-10T03:23:53.193Z,61.67
2019-06-10T03:26:24.353Z,61.64
2019-06-10T03:28:52.052Z,61.58
2019-06-10T03:31:20.569Z,61.66
2019-06-10T03:33:48.078Z,61.58
2019-06-10T03:36:15.958Z,61.69
2019-06-10T03:38:43.363Z,61.70
2019-06-10T03:41:12.258Z,61.62
2019-06-10T03:43:38.368Z,61.55
2019-06-10T03:46:05.010Z,61.63
2019-06-10T03:48:32.928Z,61.65
2019-06-10T03:50:59.730Z,61.84
2019-06-10T03:53:27.328Z,61.81
2019-06-10T03:55:54.635Z,61.76
2019-06-10T03:58:22.067Z,61.87
2019-06-10T04:00:52.097Z,61.97
2019-06-10T04:03:17.880Z,61.96
2019-06-10T04:05:44.486Z,61.98
2019-06-10T04:08:12.591Z,61.93
2019-06-10T04:10:39.262Z,62.02
2019-06-10T04:13:05.889Z,61.98
2019-06-10T04:15:32.729Z,61.93
2019-06-10T04:17:59.422Z,62.04
2019-06-10T04:20:28.336Z,62.09
2019-06-10T04:22:54.307Z,62.10
2019-06-10T04:25:24.638Z,62.12
2019-06-10T04:27:49.284Z,62.03
2019-06-10T04:30:16.673Z,62.04
2019-06-10T04:32:43.630Z,62.12
2019-06-10T04:35:12.526Z,62.03
2019-06-10T04:37:38.496Z,62.12
2019-06-10T04:40:05.095Z,62.11
2019-06-10T04:42:32.985Z,62.10
2019-06-10T04:44:59.958Z,62.11
2019-06-10T04:47:27.987Z,62.24
2019-06-10T04:49:54.912Z,62.31
2019-06-10T04:52:23.623Z,62.19
2019-06-10T04:54:49.857Z,62.44
2019-06-10T04:57:16.433Z,62.35
2019-06-10T04:59:43.037Z,62.33
2019-06-10T05:02:09.634Z,62.34
2019-06-10T05:04:36.542Z,62.31
2019-06-10T05:07:03.165Z,62.25
2019-06-10T05:09:31.140Z,62.32
2019-06-10T05:11:58.134Z,62.32
2019-06-10T05:14:25.742Z,62.27
2019-06-10T05:16:54.333Z,62.25
2019-06-10T05:19:24.533Z,62.17
2019-06-10T05:21:49.414Z,62.14
2019-06-10T05:24:16.058Z,62.14
2019-06-10T05:26:42.829Z,62.07
2019-06-10T05:29:11.927Z,62.00
2019-06-10T05:31:37.907Z,61.93
2019-06-10T05:34:04.498Z,61.92
2019-06-10T05:36:34.537Z,61.91
2019-06-10T05:38:59.422Z,61.88
2019-06-10T05:41:27.859Z,61.83
2019-06-10T05:43:54.381Z,61.80
2019-06-10T05:46:22.767Z,61.80
2019-06-10T05:48:49.315Z,61.74
2019-06-10T05:51:15.973Z,61.65
2019-06-10T05:53:45.749Z,61.56
2019-06-10T05:56:12.954Z,61.41
2019-06-10T05:58:48.374Z,61.26
2019-06-10T06:01:14.979Z,61.10
2019-06-10T06:03:43.932Z,60.92
2019-06-10T06:06:12.310Z,60.80
2019-06-10T06:08:38.212Z,60.70
2019-06-10T06:11:04.794Z,60.59
2019-06-10T06:13:33.921Z,60.39
2019-06-10T06:15:59.743Z,60.21
2019-06-10T06:18:26.330Z,60.12
2019-06-10T06:20:52.948Z,59.93
2019-06-10T06:23:19.643Z,59.80
2019-06-10T06:25:48.275Z,59.68
2019-06-10T06:28:16.294Z,59.54
2019-06-10T06:30:43.044Z,59.46
2019-06-10T06:33:09.648Z,59.41
2019-06-10T06:35:42.750Z,59.37
2019-06-10T06:38:04.589Z,59.31
2019-06-10T06:40:34.321Z,59.15
2019-06-10T06:42:59.504Z,58.96
2019-06-10T06:45:27.606Z,58.74
2019-06-10T06:47:54.340Z,58.69
2019-06-10T06:50:25.417Z,58.53
2019-06-10T06:53:19.055Z,58.34
2019-06-10T06:55:17.613Z,58.04
2019-06-10T06:57:44.225Z,57.95
2019-06-10T07:00:37.388Z,57.73
2019-06-10T07:02:40.903Z,57.65
2019-06-10T07:05:07.521Z,57.54
2019-06-10T07:07:35.411Z,57.34
2019-06-10T07:10:03.379Z,57.22
2019-06-10T07:12:31.371Z,57.01
2019-06-10T07:14:58.634Z,56.75
2019-06-10T07:17:25.201Z,56.51
2019-06-10T07:19:52.909Z,56.31
2019-06-10T07:22:19.745Z,56.00
2019-06-10T07:24:47.552Z,55.87
2019-06-10T07:27:14.519Z,55.72
2019-06-10T07:29:45.382Z,55.83
2019-06-10T07:32:09.416Z,55.68
2019-06-10T07:34:37.122Z,55.61
2019-06-10T07:37:04.368Z,55.37
2019-06-10T07:39:33.716Z,55.20
2019-06-10T07:41:59.286Z,55.06
2019-06-10T07:44:27.610Z,54.91
2019-06-10T07:46:54.196Z,54.67
2019-06-10T07:49:23.619Z,54.56
2019-06-10T07:51:49.117Z,53.91
2019-06-10T07:54:15.727Z,53.43
2019-06-10T07:56:49.799Z,53.28
2019-06-10T07:59:12.959Z,52.87
2019-06-10T08:01:45.919Z,52.42
2019-06-10T08:04:07.281Z,52.04
2019-06-10T08:06:36.103Z,51.89
2019-06-10T08:09:02.394Z,51.69
2019-06-10T08:11:30.355Z,51.48
2019-06-10T08:13:56.985Z,51.29
2019-06-10T08:16:23.869Z,50.82
2019-06-10T08:19:17.194Z,50.79
2019-06-10T08:21:18.874Z,50.43
2019-06-10T08:23:47.416Z,50.27
2019-06-10T08:26:13.799Z,49.97
2019-06-10T08:28:41.754Z,49.80
2019-06-10T08:31:08.728Z,49.42
2019-06-10T08:33:35.332Z,49.14
2019-06-10T08:36:03.919Z,48.88
2019-06-10T08:38:32.712Z,48.66
2019-06-10T08:40:58.567Z,48.46
2019-06-10T08:43:25.167Z,48.27
2019-06-10T08:45:53.023Z,48.46
2019-06-10T08:48:22.554Z,48.11
2019-06-10T08:50:49.998Z,47.69
2019-06-10T08:53:18.254Z,47.68
2019-06-10T08:55:47.795Z,47.36
2019-06-10T08:58:13.568Z,47.13
2019-06-10T09:00:41.131Z,46.89
2019-06-10T09:03:09.192Z,46.89
2019-06-10T09:05:35.873Z,46.57
2019-06-10T09:08:03.296Z,46.32
2019-06-10T09:10:33.782Z,46.22
2019-06-10T09:12:59.397Z,46.11
2019-06-10T09:15:25.978Z,45.87
2019-06-10T09:17:56.141Z,45.50
2019-06-10T09:20:23.072Z,45.45
2019-06-10T09:23:10.879Z,45.18
2019-06-10T09:25:17.570Z,45.04
2019-06-10T09:27:47.479Z,44.61
2019-06-10T09:30:13.460Z,44.38
2019-06-10T09:32:42.651Z,44.38
2019-06-10T09:35:08.779Z,44.28
2019-06-10T09:37:35.465Z,44.12
2019-06-10T09:40:03.464Z,43.70
2019-06-10T09:42:30.190Z,43.53
2019-06-10T09:44:56.898Z,43.34
2019-06-10T09:47:23.455Z,43.22
2019-06-10T09:49:51.397Z,42.90
2019-06-10T09:52:18.353Z,42.44
2019-06-10T09:54:47.968Z,42.06
2019-06-10T09:57:13.297Z,41.48
2019-06-10T09:59:41.742Z,41.23
2019-06-10T10:02:08.171Z,40.32
2019-06-10T10:04:37.415Z,39.49
2019-06-10T10:07:03.253Z,38.70
2019-06-10T10:09:29.883Z,38.19
2019-06-10T10:11:56.483Z,37.43
2019-06-10T10:14:23.160Z,36.86
2019-06-10T10:16:56.963Z,36.60
2019-06-10T10:19:18.145Z,36.13
2019-06-10T10:21:46.898Z,35.14
2019-06-10T10:24:15.022Z,34.19
2019-06-10T10:26:43.361Z,32.65
2019-06-10T10:29:09.696Z,31.56
2019-06-10T10:31:36.286Z,30.65
2019-06-10T10:34:02.971Z,29.42
2019-06-10T10:36:29.638Z,28.31
2019-06-10T10:38:56.246Z,26.94
2019-06-10T10:41:23.467Z,26.04
2019-06-10T10:43:55.431Z,25.04
2019-06-10T10:46:19.073Z,24.20
2019-06-10T10:48:46.978Z,23.42
2019-06-10T10:51:13.732Z,22.64
2019-06-10T10:53:46.570Z,21.83
2019-06-10T10:56:12.886Z,20.97
2019-06-10T10:58:39.404Z,20.30
2019-06-10T11:01:06.022Z,19.79
2019-06-10T11:03:33.651Z,19.15
2019-06-10T11:06:02.562Z,18.71
2019-06-10T11:08:29.132Z,17.97
2019-06-10T11:11:00.599Z,17.65
2019-06-10T11:13:24.096Z,17.27
2019-06-10T11:15:54.711Z,16.81
2019-06-10T11:18:19.040Z,16.02
2019-06-10T11:20:45.654Z,16.01
2019-06-10T11:23:12.477Z,15.45
2019-06-10T11:25:39.203Z,15.17
2019-06-10T11:28:06.466Z,14.81
2019-06-10T11:30:33.258Z,14.65
2019-06-10T11:33:03.075Z,14.51
2019-06-10T11:35:28.472Z,14.64
2019-06-10T11:37:58.218Z,14.24
2019-06-10T11:40:24.964Z,14.04
2019-06-10T11:42:56.359Z,13.86
2019-06-10T11:45:22.256Z,13.67
2019-06-10T11:47:49.358Z,13.13
2019-06-10T11:50:16.117Z,13.07
2019-06-10T11:52:43.343Z,12.80
2019-06-10T11:55:16.450Z,12.77
2019-06-10T11:57:38.460Z,12.40
2019-06-10T12:00:13.610Z,12.18
2019-06-10T12:02:33.380Z,11.59
2019-06-10T12:05:03.259Z,11.32
2019-06-10T12:07:28.467Z,11.23
2019-06-10T12:09:57.661Z,10.91
2019-06-10T12:12:23.338Z,10.56
2019-06-10T12:14:54.789Z,10.17
2019-06-10T12:17:40.054Z,9.96
2019-06-10T12:19:46.620Z,9.67
2019-06-10T12:22:13.516Z,9.42
2019-06-10T12:24:43.008Z,9.15
2019-06-10T12:27:08.536Z,9.11
2019-06-10T12:29:35.137Z,8.65
2019-06-10T12:32:06.946Z,8.62
2019-06-10T12:34:33.008Z,8.54
2019-06-10T12:37:07.475Z,8.22
2019-06-10T12:39:26.855Z,8.08
2019-06-10T12:41:57.565Z,8.02
2019-06-10T12:44:22.796Z,7.83
2019-06-10T12:46:54.906Z,7.56
2019-06-10T12:49:20.881Z,7.38
2019-06-10T12:51:47.488Z,7.27
2019-06-10T12:54:14.061Z,7.14
2019-06-10T12:56:42.352Z,7.02
2019-06-10T12:59:10.101Z,6.97
2019-06-10T13:01:36.877Z,6.85
2019-06-10T13:04:07.118Z,6.96
2019-06-10T13:06:32.437Z,6.73
2019-06-10T13:08:59.692Z,6.66
2019-06-10T13:11:27.476Z,6.64
2019-06-10T13:13:54.054Z,6.51
2019-06-10T13:16:20.639Z,6.38
2019-06-10T13:18:47.242Z,6.40
2019-06-10T13:21:17.546Z,6.42
2019-06-10T13:23:43.161Z,6.43
2019-06-10T13:26:15.742Z,6.30
2019-06-10T13:28:38.566Z,6.30
2019-06-10T13:31:07.935Z,6.28
2019-06-10T13:33:33.470Z,6.18
2019-06-10T13:36:00.915Z,6.24
2019-06-10T13:38:27.695Z,6.41
2019-06-10T13:40:54.308Z,6.52
2019-06-10T13:43:23.747Z,6.49
2019-06-10T13:45:50.385Z,6.69
2019-06-10T13:48:17.097Z,6.78
2019-06-10T13:50:43.662Z,6.63
2019-06-10T13:53:13.436Z,6.66
2019-06-10T13:55:41.053Z,6.79
2019-06-10T13:58:09.553Z,6.94
2019-06-10T14:00:42.842Z,7.21
2019-06-10T14:03:09.214Z,7.45
2019-06-10T14:05:34.463Z,7.45
2019-06-10T14:08:03.467Z,7.68
2019-06-10T14:10:29.335Z,7.88
2019-06-10T14:12:55.997Z,7.98
2019-06-10T14:15:22.774Z,8.09
2019-06-10T14:17:49.536Z,8.28
2019-06-10T14:20:16.112Z,8.47
2019-06-10T14:22:43.337Z,8.71
2019-06-10T14:25:11.387Z,8.95
2019-06-10T14:27:38.303Z,9.30
2019-06-10T14:30:06.246Z,9.67
2019-06-10T14:32:33.311Z,10.12
2019-06-10T14:34:59.876Z,10.60
2019-06-10T14:37:38.073Z,11.03
2019-06-10T14:39:54.812Z,11.51
2019-06-10T14:42:23.105Z,12.07
2019-06-10T14:44:49.872Z,12.69
2019-06-10T14:47:16.891Z,13.50
2019-06-10T14:49:43.728Z,14.22
2019-06-10T14:52:13.476Z,14.82
2019-06-10T14:54:38.792Z,15.32
2019-06-10T14:57:05.481Z,15.84
2019-06-10T14:59:32.075Z,16.20
2019-06-10T15:04:33.014Z,16.83
2019-06-10T15:06:59.242Z,17.44
2019-06-10T15:09:26.029Z,17.87
2019-06-10T15:11:52.761Z,18.83
2019-06-10T15:14:20.372Z,18.77
2019-06-10T15:16:48.107Z,19.14
2019-06-10T15:19:21.874Z,19.48
2019-06-10T15:21:43.086Z,19.94
2019-06-10T15:24:09.918Z,20.14
2019-06-10T15:26:36.635Z,20.50
2019-06-10T15:29:03.258Z,21.31
2019-06-10T15:31:29.826Z,21.52
2019-06-10T15:33:56.448Z,21.85
2019-06-10T15:36:24.274Z,22.27
2019-06-10T15:38:52.575Z,22.67
2019-06-10T15:41:21.348Z,23.06
2019-06-10T15:43:47.593Z,23.49
2019-06-10T15:46:15.846Z,24.03
2019-06-10T15:48:43.088Z,23.96
2019-06-10T15:51:11.034Z,24.23
2019-06-10T15:53:38.396Z,24.38
2019-06-10T15:56:14.477Z,24.58
2019-06-10T15:58:33.348Z,24.85
2019-06-10T16:01:02.531Z,25.18
2019-06-10T16:03:28.289Z,25.42
2019-06-10T16:05:54.862Z,25.59
2019-06-10T16:08:22.514Z,25.92
2019-06-10T16:10:49.426Z,26.12
2019-06-10T16:13:16.431Z,26.34
2019-06-10T16:15:43.519Z,26.55
2019-06-10T16:18:10.281Z,26.79
2019-06-10T16:20:36.862Z,26.87
2019-06-10T16:23:03.448Z,27.14
2019-06-10T16:25:30.022Z,27.24
2019-06-10T16:27:56.625Z,27.38
2019-06-10T16:30:25.875Z,27.67
2019-06-10T16:32:53.046Z,27.67
2019-06-10T16:35:21.482Z,27.79
2019-06-10T16:37:48.172Z,27.94
2019-06-10T16:40:15.179Z,28.14
2019-06-10T16:42:43.082Z,28.47
2019-06-10T16:45:09.800Z,28.70
2019-06-10T16:47:36.396Z,28.89
2019-06-10T16:50:03.378Z,29.34
2019-06-10T16:52:30.399Z,29.65
2019-06-10T16:54:57.170Z,30.01
2019-06-10T16:57:25.545Z,30.77
2019-06-10T16:59:52.151Z,30.86
2019-06-10T17:02:19.193Z,31.10
2019-06-10T17:04:47.611Z,31.37
2019-06-10T17:07:14.184Z,31.87
2019-06-10T17:09:42.177Z,32.10
2019-06-10T17:12:08.887Z,32.39
2019-06-10T17:14:35.476Z,32.53
2019-06-10T17:17:03.517Z,32.84
2019-06-10T17:19:33.165Z,33.07
2019-06-10T17:21:58.843Z,33.43
2019-06-10T17:24:27.273Z,33.75
2019-06-10T17:26:53.802Z,33.88
2019-06-10T17:29:22.797Z,34.32
2019-06-10T17:31:48.702Z,34.41
2019-06-10T17:34:15.303Z,35.01
2019-06-10T17:36:42.656Z,35.09
2019-06-10T17:39:09.535Z,35.18
2019-06-10T17:41:36.113Z,35.43
2019-06-10T17:44:02.813Z,35.51
2019-06-10T17:46:30.669Z,35.74
2019-06-10T17:48:57.647Z,36.01
2019-06-10T17:51:26.127Z,36.31
2019-06-10T17:53:53.120Z,36.51
2019-06-10T17:56:22.618Z,36.46
2019-06-10T17:58:56.823Z,37.24
2019-06-10T18:01:16.499Z,36.96
2019-06-10T18:03:43.193Z,37.16
2019-06-10T18:06:09.760Z,37.28
2019-06-10T18:08:36.747Z,37.40
2019-06-10T18:11:04.268Z,37.56
2019-06-10T18:13:33.131Z,37.71
2019-06-10T18:15:59.216Z,37.93
2019-06-10T18:18:26.374Z,38.07
2019-06-10T18:20:53.738Z,38.07
2019-06-10T18:23:22.905Z,38.28
2019-06-10T18:25:49.116Z,38.45
2019-06-10T18:28:15.695Z,38.60
2019-06-10T18:30:43.527Z,38.82
2019-06-10T18:33:10.334Z,38.99
2019-06-10T18:35:37.664Z,39.04
2019-06-10T18:38:04.431Z,39.17
2019-06-10T18:40:31.651Z,39.36
2019-06-10T18:42:58.382Z,39.60
2019-06-10T18:45:24.995Z,39.76
2019-06-10T18:47:52.992Z,40.07
2019-06-10T18:50:21.978Z,40.09
2019-06-10T18:52:48.290Z,40.25
2019-06-10T18:55:14.977Z,40.56
2019-06-10T18:57:42.577Z,40.72
2019-06-10T19:00:11.977Z,41.07
2019-06-10T19:02:38.616Z,41.12
2019-06-10T19:05:05.317Z,41.26
2019-06-10T19:07:33.839Z,41.37
2019-06-10T19:10:02.351Z,41.62
2019-06-10T19:12:29.180Z,41.67
2019-06-10T19:14:55.894Z,41.88
2019-06-10T19:17:23.070Z,41.96
2019-06-10T19:19:49.962Z,42.14
2019-06-10T19:22:16.595Z,42.28
2019-06-10T19:24:44.758Z,42.61
2019-06-10T19:27:11.544Z,42.88
2019-06-10T19:29:45.438Z,43.03
2019-06-10T19:32:06.568Z,43.06
2019-06-10T19:34:33.409Z,43.17
2019-06-10T19:37:02.445Z,43.20
2019-06-10T19:39:28.383Z,43.47
2019-06-10T19:41:54.988Z,43.57
2019-06-10T19:44:23.409Z,43.69
2019-06-10T19:46:52.222Z,43.93
2019-06-10T19:49:24.422Z,44.08
2019-06-10T19:51:52.658Z,43.99
2019-06-10T19:54:19.861Z,44.03
2019-06-10T19:56:46.991Z,44.05
2019-06-10T19:59:13.757Z,44.14
2019-06-10T20:01:41.875Z,44.21
2019-06-10T20:04:08.806Z,44.27
2019-06-10T20:06:35.762Z,44.50
2019-06-10T20:09:02.776Z,44.55
2019-06-10T20:11:29.440Z,44.75
2019-06-10T20:13:56.034Z,45.00
2019-06-10T20:16:22.612Z,45.13
2019-06-10T20:18:49.861Z,45.07
2019-06-10T20:21:16.512Z,45.14
2019-06-10T20:23:45.741Z,45.14
2019-06-10T20:26:12.129Z,45.24
2019-06-10T20:28:38.832Z,45.67
2019-06-10T20:31:05.487Z,45.64
2019-06-10T20:33:36.137Z,45.71
2019-06-10T20:36:03.471Z,45.73
2019-06-10T20:38:28.828Z,46.10
2019-06-10T20:40:55.447Z,46.10
2019-06-10T20:43:22.417Z,46.17
2019-06-10T20:45:50.053Z,46.24
2019-06-10T20:48:16.657Z,46.16
2019-06-10T20:50:44.340Z,46.34
2019-06-10T20:53:17.643Z,46.37
2019-06-10T20:55:46.701Z,46.47
2019-06-10T20:58:08.248Z,46.48
2019-06-10T21:00:35.062Z,46.59
2019-06-10T21:03:03.207Z,46.67
2019-06-10T21:05:29.965Z,46.78
2019-06-10T21:07:56.570Z,46.79
2019-06-10T21:10:23.207Z,46.73
2019-06-10T21:12:50.927Z,46.84
2019-06-10T21:15:17.563Z,46.90
2019-06-10T21:17:45.850Z,46.91
2019-06-10T21:20:12.487Z,46.92
2019-06-10T21:22:40.370Z,46.77
2019-06-10T21:25:07.501Z,47.00
2019-06-10T21:27:34.072Z,46.98
2019-06-10T21:30:04.408Z,46.93
2019-06-10T21:32:29.070Z,47.01
2019-06-10T21:34:55.693Z,46.90
2019-06-10T21:37:22.694Z,46.88
2019-06-10T21:39:50.717Z,46.95
2019-06-10T21:42:17.885Z,47.02
2019-06-10T21:44:45.824Z,46.96
2019-06-10T21:47:12.931Z,47.04
2019-06-10T21:49:39.800Z,47.06
2019-06-10T21:52:06.476Z,47.22
2019-06-10T21:54:33.164Z,47.15
2019-06-10T21:56:59.736Z,47.19
2019-06-10T21:59:26.454Z,47.29
2019-06-10T22:01:53.371Z,47.21
2019-06-10T22:04:22.350Z,47.27
2019-06-10T22:06:49.573Z,47.30
2019-06-10T22:09:16.219Z,47.33
2019-06-10T22:11:43.866Z,47.34
2019-06-10T22:14:12.095Z,47.45
2019-06-10T22:16:38.847Z,47.50
2019-06-10T22:19:05.494Z,47.70
2019-06-10T22:21:32.631Z,47.63
2019-06-10T22:23:59.305Z,47.84
2019-06-10T22:26:25.911Z,48.01
2019-06-10T22:28:55.416Z,48.03
2019-06-10T22:31:23.527Z,48.09
2019-06-10T22:33:49.510Z,48.17
2019-06-10T22:36:16.167Z,48.19
2019-06-10T22:38:42.777Z,48.27
2019-06-10T22:41:09.465Z,48.28
2019-06-10T22:43:36.035Z,48.35
2019-06-10T22:46:04.068Z,48.52
2019-06-10T22:48:33.210Z,48.60
2019-06-10T22:50:59.560Z,48.67
2019-06-10T22:53:26.301Z,48.78
2019-06-10T22:55:53.538Z,48.83
2019-06-10T22:58:23.684Z,48.96
2019-06-10T23:00:49.995Z,49.06
2019-06-10T23:03:17.130Z,49.07
2019-06-10T23:05:43.728Z,49.21
2019-06-10T23:08:12.426Z,49.29
2019-06-10T23:10:38.623Z,49.26
2019-06-10T23:13:05.228Z,49.33
2019-06-10T23:15:32.319Z,49.46
2019-06-10T23:18:00.274Z,49.46
2019-06-10T23:20:26.943Z,49.54
2019-06-10T23:22:56.121Z,49.58
2019-06-10T23:25:22.204Z,49.69
2019-06-10T23:27:50.059Z,49.90
2019-06-10T23:30:16.850Z,49.97
2019-06-10T23:32:43.427Z,50.12
2019-06-10T23:35:12.141Z,50.04
2019-06-10T23:37:38.335Z,50.15
2019-06-10T23:40:04.911Z,50.25
2019-06-10T23:42:32.219Z,50.22
2019-06-10T23:44:59.210Z,50.33
2019-06-10T23:47:25.940Z,50.23
2019-06-10T23:49:53.493Z,50.22
2019-06-10T23:52:22.163Z,50.27
2019-06-10T23:54:48.608Z,50.46
2019-06-10T23:57:15.183Z,50.77
2019-06-10T23:59:42.764Z,50.76
